createdAt,value
2019-02-15T00:01:25.845Z,7.68
2019-02-15T00:03:56.742Z,7.62
2019-02-15T00:06:27.324Z,7.65
2019-02-15T00:08:58.783Z,7.62
2019-02-15T00:11:29.378Z,7.66
2019-02-15T00:14:00.442Z,7.64
2019-02-15T00:16:31.031Z,7.66
2019-02-15T00:19:23.388Z,7.59
2019-02-15T00:21:54.547Z,7.65
2019-02-15T00:24:25.134Z,7.60
2019-02-15T00:26:55.905Z,7.49
2019-02-15T00:29:26.478Z,7.60
2019-02-15T00:31:57.255Z,7.52
2019-02-15T00:34:27.752Z,7.49
2019-02-15T00:36:58.724Z,7.52
2019-02-15T00:39:29.490Z,7.53
2019-02-15T00:42:00.045Z,7.43
2019-02-15T00:44:30.562Z,7.41
2019-02-15T00:47:13.961Z,7.35
2019-02-15T00:50:06.358Z,7.31
2019-02-15T00:52:51.103Z,7.33
2019-02-15T00:55:30.510Z,7.26
2019-02-15T00:58:28.900Z,7.31
2019-02-15T01:01:16.463Z,7.34
2019-02-15T01:03:51.350Z,7.31
2019-02-15T01:06:39.224Z,7.36
2019-02-15T01:09:16.771Z,7.34
2019-02-15T01:12:00.107Z,7.35
2019-02-15T01:14:32.211Z,7.38
2019-02-15T01:17:03.092Z,7.33
2019-02-15T01:19:33.975Z,7.28
2019-02-15T01:22:04.740Z,7.37
2019-02-15T01:24:40.955Z,7.35
2019-02-15T01:27:33.576Z,7.29
2019-02-15T01:30:33.123Z,7.28
2019-02-15T01:33:30.260Z,7.31
2019-02-15T01:36:15.219Z,7.28
2019-02-15T01:39:05.452Z,7.35
2019-02-15T01:42:03.651Z,7.24
2019-02-15T01:44:40.202Z,7.34
2019-02-15T01:47:19.690Z,7.26
2019-02-15T01:49:50.638Z,7.27
2019-02-15T01:52:29.510Z,7.24
2019-02-15T01:55:52.117Z,7.31
2019-02-15T01:58:26.762Z,7.18
2019-02-15T02:00:58.488Z,7.25
2019-02-15T02:03:30.382Z,7.24
2019-02-15T02:06:00.910Z,7.27
2019-02-15T02:08:31.938Z,7.26
2019-02-15T02:11:02.624Z,7.20
2019-02-15T02:13:35.022Z,7.35
2019-02-15T02:16:06.948Z,7.30
2019-02-15T02:18:37.978Z,7.40
2019-02-15T02:21:08.859Z,7.32
2019-02-15T02:23:39.636Z,7.30
2019-02-15T02:26:10.167Z,7.23
2019-02-15T02:28:44.712Z,7.25
2019-02-15T02:31:15.479Z,7.19
2019-02-15T02:33:45.977Z,7.14
2019-02-15T02:36:16.489Z,7.12
2019-02-15T02:38:47.101Z,7.06
2019-02-15T02:41:17.575Z,6.98
2019-02-15T02:43:48.112Z,6.98
2019-02-15T02:46:18.632Z,6.93
2019-02-15T02:48:49.158Z,7.02
2019-02-15T02:51:19.979Z,7.05
2019-02-15T02:53:50.812Z,7.15
2019-02-15T02:56:21.619Z,7.15
2019-02-15T02:58:52.545Z,7.11
2019-02-15T03:01:23.287Z,7.09
2019-02-15T03:03:54.069Z,7.11
2019-02-15T03:06:24.626Z,7.07
2019-02-15T03:08:55.131Z,7.08
2019-02-15T03:11:25.765Z,7.11
2019-02-15T03:13:56.615Z,7.19
2019-02-15T03:16:27.502Z,7.23
2019-02-15T03:18:58.022Z,7.23
2019-02-15T03:21:28.611Z,7.24
2019-02-15T03:23:59.446Z,7.28
2019-02-15T03:26:29.980Z,7.21
2019-02-15T03:29:01.196Z,7.23
2019-02-15T03:31:32.270Z,7.25
2019-02-15T03:34:02.804Z,7.30
2019-02-15T03:36:55.078Z,7.28
2019-02-15T03:39:33.568Z,7.35
2019-02-15T03:42:04.275Z,7.36
2019-02-15T03:44:34.817Z,7.27
2019-02-15T03:47:05.606Z,7.28
2019-02-15T03:49:36.475Z,7.30
2019-02-15T03:52:07.281Z,7.18
2019-02-15T03:54:37.797Z,7.18
2019-02-15T03:57:08.451Z,7.25
2019-02-15T03:59:39.265Z,7.14
2019-02-15T04:02:09.775Z,7.08
2019-02-15T04:04:40.322Z,7.13
2019-02-15T04:07:10.878Z,7.12
2019-02-15T04:09:41.837Z,7.08
2019-02-15T04:12:12.398Z,7.03
2019-02-15T04:14:43.199Z,7.07
2019-02-15T04:17:13.772Z,6.98
2019-02-15T04:19:44.312Z,7.02
2019-02-15T04:22:15.079Z,7.01
2019-02-15T04:24:45.609Z,7.05
2019-02-15T04:27:16.224Z,7.03
2019-02-15T04:29:46.790Z,7.05
2019-02-15T04:32:17.313Z,7.03
2019-02-15T04:34:48.135Z,6.93
2019-02-15T04:37:19.010Z,6.98
2019-02-15T04:39:49.532Z,6.93
2019-02-15T04:42:20.340Z,6.94
2019-02-15T04:44:51.133Z,6.91
2019-02-15T04:47:21.661Z,6.92
2019-02-15T04:49:52.262Z,6.94
2019-02-15T04:52:23.095Z,6.97
2019-02-15T04:54:53.573Z,6.93
2019-02-15T04:57:24.399Z,6.86
2019-02-15T04:59:55.224Z,6.84
2019-02-15T05:02:26.017Z,6.86
2019-02-15T05:04:56.565Z,6.84
2019-02-15T05:07:27.082Z,6.86
2019-02-15T05:09:57.638Z,6.79
2019-02-15T05:12:28.493Z,6.78
2019-02-15T05:14:59.720Z,6.74
2019-02-15T05:17:30.288Z,6.72
2019-02-15T05:20:01.219Z,6.71
2019-02-15T05:22:31.806Z,6.73
2019-02-15T05:25:02.366Z,6.74
2019-02-15T05:27:33.575Z,6.62
2019-02-15T05:30:04.128Z,6.58
2019-02-15T05:32:34.730Z,6.66
2019-02-15T05:35:05.601Z,6.63
2019-02-15T05:37:36.188Z,6.68
2019-02-15T05:40:07.274Z,6.60
2019-02-15T05:42:37.874Z,6.54
2019-02-15T05:45:08.445Z,6.71
2019-02-15T05:47:38.982Z,6.62
2019-02-15T05:50:09.908Z,6.60
2019-02-15T05:52:40.454Z,6.71
2019-02-15T05:55:11.254Z,6.69
2019-02-15T05:57:41.884Z,6.87
2019-02-15T06:00:13.212Z,6.85
2019-02-15T06:02:43.709Z,6.85
2019-02-15T06:05:15.273Z,6.87
2019-02-15T06:07:45.853Z,6.79
2019-02-15T06:10:16.693Z,6.86
2019-02-15T06:12:47.233Z,6.86
2019-02-15T06:15:18.041Z,6.94
2019-02-15T06:17:48.638Z,6.90
2019-02-15T06:20:19.141Z,6.90
2019-02-15T06:22:49.642Z,6.94
2019-02-15T06:25:20.202Z,6.98
2019-02-15T06:27:51.051Z,6.95
2019-02-15T06:30:22.186Z,6.91
2019-02-15T06:32:53.039Z,6.98
2019-02-15T06:35:23.577Z,6.97
2019-02-15T06:37:54.102Z,7.06
2019-02-15T06:40:24.589Z,7.07
2019-02-15T06:42:55.364Z,7.02
2019-02-15T06:45:25.895Z,7.07
2019-02-15T06:47:56.496Z,7.06
2019-02-15T06:50:27.350Z,7.05
2019-02-15T06:52:58.147Z,7.04
2019-02-15T06:55:28.892Z,7.11
2019-02-15T06:57:59.822Z,7.08
2019-02-15T07:00:45.002Z,7.04
2019-02-15T07:03:37.494Z,7.07
2019-02-15T07:06:07.992Z,7.05
2019-02-15T07:08:38.765Z,7.11
2019-02-15T07:11:09.426Z,7.11
2019-02-15T07:13:40.469Z,7.09
2019-02-15T07:16:10.984Z,7.18
2019-02-15T07:18:41.548Z,7.23
2019-02-15T07:21:12.318Z,7.40
2019-02-15T07:23:43.114Z,7.56
2019-02-15T07:26:13.936Z,7.69
2019-02-15T07:28:45.196Z,7.84
2019-02-15T07:31:15.749Z,7.99
2019-02-15T07:33:46.698Z,8.20
2019-02-15T07:36:17.513Z,8.14
2019-02-15T07:38:48.128Z,8.55
2019-02-15T07:41:18.643Z,8.68
2019-02-15T07:43:49.175Z,8.82
2019-02-15T07:46:19.673Z,9.00
2019-02-15T07:48:50.492Z,9.09
2019-02-15T07:51:21.623Z,9.13
2019-02-15T07:53:52.848Z,9.36
2019-02-15T07:56:24.244Z,9.70
2019-02-15T07:58:54.791Z,9.69
2019-02-15T08:01:25.644Z,9.93
2019-02-15T08:03:56.459Z,10.18
2019-02-15T08:06:26.977Z,10.32
2019-02-15T08:08:57.480Z,10.24
2019-02-15T08:11:28.296Z,9.73
2019-02-15T08:13:59.144Z,10.45
2019-02-15T08:16:29.951Z,10.61
2019-02-15T08:19:00.514Z,10.96
2019-02-15T08:21:31.591Z,10.92
2019-02-15T08:24:03.236Z,10.80
2019-02-15T08:26:34.020Z,10.77
2019-02-15T08:29:04.557Z,11.10
2019-02-15T08:31:35.086Z,11.43
2019-02-15T08:34:06.307Z,11.53
2019-02-15T08:36:36.868Z,11.00
2019-02-15T08:39:08.572Z,10.58
2019-02-15T08:41:39.107Z,11.14
2019-02-15T08:44:09.644Z,11.17
2019-02-15T08:46:40.178Z,11.20
2019-02-15T08:49:10.718Z,11.32
2019-02-15T08:51:41.224Z,11.64
2019-02-15T08:54:11.729Z,11.75
2019-02-15T08:56:42.337Z,12.06
2019-02-15T08:59:12.838Z,12.29
2019-02-15T09:01:43.932Z,12.87
2019-02-15T09:04:17.303Z,12.52
2019-02-15T09:06:48.047Z,12.79
2019-02-15T09:09:18.558Z,12.96
2019-02-15T09:11:49.096Z,12.77
2019-02-15T09:14:19.648Z,12.76
2019-02-15T09:16:50.150Z,13.11
2019-02-15T09:19:20.742Z,13.25
2019-02-15T09:21:51.322Z,13.23
2019-02-15T09:24:21.859Z,13.70
2019-02-15T09:26:52.419Z,13.26
2019-02-15T09:29:22.913Z,14.37
2019-02-15T09:31:53.556Z,13.90
2019-02-15T09:34:24.409Z,14.27
2019-02-15T09:36:55.220Z,14.84
2019-02-15T09:39:25.717Z,14.07
2019-02-15T09:41:56.844Z,14.54
2019-02-15T09:44:27.602Z,14.65
2019-02-15T09:46:58.123Z,14.88
2019-02-15T09:49:28.665Z,14.48
2019-02-15T09:51:59.199Z,14.84
2019-02-15T09:54:29.696Z,14.67
2019-02-15T09:57:00.259Z,15.13
2019-02-15T09:59:30.961Z,15.41
2019-02-15T10:02:01.471Z,16.22
2019-02-15T10:04:32.267Z,16.32
2019-02-15T10:07:02.794Z,16.46
2019-02-15T10:09:33.320Z,16.91
2019-02-15T10:12:03.893Z,17.19
2019-02-15T10:14:34.730Z,17.39
2019-02-15T10:17:05.484Z,16.87
2019-02-15T10:19:36.574Z,17.57
2019-02-15T10:22:07.249Z,17.49
2019-02-15T10:24:38.018Z,16.18
2019-02-15T10:27:08.557Z,16.91
2019-02-15T10:29:39.074Z,16.41
2019-02-15T10:32:10.412Z,16.31
2019-02-15T10:34:41.044Z,16.21
2019-02-15T10:37:11.796Z,16.75
2019-02-15T10:39:42.891Z,16.31
2019-02-15T10:42:13.712Z,16.23
2019-02-15T10:44:44.296Z,15.90
2019-02-15T10:47:24.442Z,16.89
2019-02-15T10:49:47.333Z,16.31
2019-02-15T10:52:18.086Z,16.18
2019-02-15T10:54:48.583Z,16.59
2019-02-15T10:57:19.130Z,16.13
2019-02-15T10:59:49.962Z,16.09
2019-02-15T11:02:20.981Z,16.55
2019-02-15T11:04:51.665Z,17.13
2019-02-15T11:07:22.159Z,16.65
2019-02-15T11:09:52.694Z,17.34
2019-02-15T11:12:23.241Z,17.42
2019-02-15T11:14:54.083Z,16.83
2019-02-15T11:17:24.975Z,16.89
2019-02-15T11:19:55.473Z,16.66
2019-02-15T11:22:26.238Z,17.30
2019-02-15T11:24:56.895Z,17.24
2019-02-15T11:27:27.418Z,17.73
2019-02-15T11:29:57.902Z,16.73
2019-02-15T11:32:28.443Z,17.62
2019-02-15T11:34:59.021Z,17.94
2019-02-15T11:37:29.523Z,17.41
2019-02-15T11:40:00.146Z,17.25
2019-02-15T11:42:30.819Z,17.97
2019-02-15T11:45:01.828Z,17.68
2019-02-15T11:47:32.442Z,17.81
2019-02-15T11:50:03.351Z,17.77
2019-02-15T11:52:33.840Z,18.21
2019-02-15T11:55:05.055Z,18.54
2019-02-15T11:57:35.613Z,17.73
2019-02-15T12:00:13.872Z,18.53
2019-02-15T12:02:39.531Z,18.20
2019-02-15T12:05:10.523Z,19.34
2019-02-15T12:07:41.358Z,19.87
2019-02-15T12:10:12.120Z,19.59
2019-02-15T12:12:43.076Z,19.68
2019-02-15T12:15:13.713Z,19.64
2019-02-15T12:17:44.536Z,20.56
2019-02-15T12:20:15.180Z,20.04
2019-02-15T12:22:45.800Z,20.12
2019-02-15T12:25:16.507Z,19.64
2019-02-15T12:27:47.414Z,19.23
2019-02-15T12:30:19.619Z,19.32
2019-02-15T12:32:50.424Z,18.58
2019-02-15T12:35:21.060Z,18.69
2019-02-15T12:37:51.645Z,19.24
2019-02-15T12:40:22.183Z,19.28
2019-02-15T12:42:53.050Z,20.11
2019-02-15T12:45:24.286Z,20.17
2019-02-15T12:47:54.850Z,20.15
2019-02-15T12:50:25.396Z,18.52
2019-02-15T12:52:55.977Z,18.65
2019-02-15T12:55:26.592Z,18.97
2019-02-15T12:57:57.178Z,19.11
2019-02-15T13:00:28.056Z,19.58
2019-02-15T13:02:58.633Z,19.26
2019-02-15T13:05:29.216Z,19.12
2019-02-15T13:08:00.130Z,18.94
2019-02-15T13:10:32.455Z,19.13
2019-02-15T13:13:03.298Z,18.79
2019-02-15T13:15:34.425Z,18.75
2019-02-15T13:18:05.175Z,19.24
2019-02-15T13:20:35.791Z,18.70
2019-02-15T13:23:06.366Z,19.56
2019-02-15T13:25:37.293Z,19.23
2019-02-15T13:28:07.899Z,19.35
2019-02-15T13:30:38.761Z,19.53
2019-02-15T13:33:09.702Z,19.02
2019-02-15T13:35:40.310Z,18.89
2019-02-15T13:38:11.173Z,19.28
2019-02-15T13:40:41.749Z,19.27
2019-02-15T13:43:13.858Z,19.40
2019-02-15T13:45:45.117Z,18.55
2019-02-15T13:48:16.989Z,19.40
2019-02-15T13:50:47.973Z,19.42
2019-02-15T13:53:19.633Z,19.58
2019-02-15T13:55:53.325Z,19.26
2019-02-15T13:58:25.064Z,19.21
2019-02-15T14:00:58.098Z,19.63
2019-02-15T14:03:29.882Z,19.51
2019-02-15T14:06:01.078Z,19.75
2019-02-15T14:08:32.925Z,19.22
2019-02-15T14:11:07.369Z,19.15
2019-02-15T14:13:40.681Z,19.04
2019-02-15T14:16:12.490Z,19.50
2019-02-15T14:18:44.218Z,19.31
2019-02-15T14:21:15.231Z,18.70
2019-02-15T14:23:45.854Z,19.03
2019-02-15T14:26:16.783Z,18.70
2019-02-15T14:28:49.468Z,18.74
2019-02-15T14:31:20.306Z,18.89
2019-02-15T14:33:50.921Z,18.37
2019-02-15T14:36:21.856Z,18.68
2019-02-15T14:38:52.423Z,18.33
2019-02-15T14:41:23.303Z,18.48
2019-02-15T14:43:54.318Z,18.46
2019-02-15T14:46:25.094Z,18.68
2019-02-15T14:48:55.736Z,18.47
2019-02-15T14:51:26.648Z,18.71
2019-02-15T14:53:57.522Z,18.54
2019-02-15T14:56:28.094Z,18.64
2019-02-15T14:58:58.727Z,18.31
2019-02-15T15:01:29.289Z,18.25
2019-02-15T15:04:00.137Z,18.46
2019-02-15T15:06:31.089Z,18.40
2019-02-15T15:09:01.915Z,18.57
2019-02-15T15:11:32.444Z,18.70
2019-02-15T15:14:03.128Z,18.50
2019-02-15T15:16:34.187Z,17.86
2019-02-15T15:19:04.790Z,17.92
2019-02-15T15:21:35.580Z,17.74
2019-02-15T15:24:06.585Z,18.00
2019-02-15T15:26:37.210Z,17.91
2019-02-15T15:29:07.842Z,17.63
2019-02-15T15:31:38.676Z,17.63
2019-02-15T15:34:09.442Z,17.71
2019-02-15T15:36:40.349Z,17.59
2019-02-15T15:39:11.291Z,17.51
2019-02-15T15:41:42.149Z,17.45
2019-02-15T15:44:15.083Z,17.56
2019-02-15T15:46:45.366Z,17.39
2019-02-15T15:49:16.924Z,17.35
2019-02-15T15:51:47.638Z,17.36
2019-02-15T15:54:18.469Z,17.27
2019-02-15T15:56:49.137Z,17.37
2019-02-15T15:59:19.698Z,17.21
2019-02-15T16:01:50.283Z,17.26
2019-02-15T16:04:20.941Z,17.18
2019-02-15T16:06:51.531Z,17.19
2019-02-15T16:09:22.115Z,17.12
2019-02-15T16:11:52.723Z,17.06
2019-02-15T16:14:23.296Z,17.11
2019-02-15T16:16:54.214Z,17.01
2019-02-15T16:19:25.069Z,16.86
2019-02-15T16:21:55.909Z,16.89
2019-02-15T16:24:26.799Z,16.87
2019-02-15T16:26:57.442Z,16.82
2019-02-15T16:29:27.998Z,16.74
2019-02-15T16:31:59.199Z,16.67
2019-02-15T16:34:29.766Z,16.65
2019-02-15T16:37:00.696Z,16.61
2019-02-15T16:39:31.370Z,16.60
2019-02-15T16:42:01.991Z,16.54
2019-02-15T16:44:32.629Z,16.45
2019-02-15T16:47:03.483Z,16.39
2019-02-15T16:49:34.765Z,16.27
2019-02-15T16:52:05.329Z,16.19
2019-02-15T16:54:36.141Z,16.25
2019-02-15T16:57:06.921Z,16.15
2019-02-15T16:59:37.544Z,16.04
2019-02-15T17:02:08.682Z,16.01
2019-02-15T17:04:39.596Z,15.94
2019-02-15T17:07:10.193Z,15.93
2019-02-15T17:09:40.741Z,15.87
2019-02-15T17:12:11.416Z,15.87
2019-02-15T17:14:42.315Z,15.77
2019-02-15T17:17:13.287Z,15.64
2019-02-15T17:19:44.168Z,15.69
2019-02-15T17:22:16.869Z,15.56
2019-02-15T17:24:47.428Z,15.49
2019-02-15T17:27:18.027Z,15.36
2019-02-15T17:29:48.879Z,15.39
2019-02-15T17:32:19.464Z,15.33
2019-02-15T17:34:50.034Z,15.28
2019-02-15T17:37:20.898Z,15.21
2019-02-15T17:39:51.915Z,15.23
2019-02-15T17:42:22.781Z,15.19
2019-02-15T17:44:53.619Z,15.14
2019-02-15T17:47:24.288Z,15.03
2019-02-15T17:49:54.868Z,14.93
2019-02-15T17:52:25.430Z,14.95
2019-02-15T17:54:56.928Z,14.93
2019-02-15T17:57:27.749Z,14.84
2019-02-15T17:59:58.363Z,14.75
2019-02-15T18:02:28.954Z,14.71
2019-02-15T18:04:59.615Z,14.68
2019-02-15T18:07:30.286Z,14.60
2019-02-15T18:10:01.166Z,14.55
2019-02-15T18:12:31.690Z,14.44
2019-02-15T18:15:02.624Z,14.41
2019-02-15T18:17:33.206Z,14.33
2019-02-15T18:20:04.043Z,14.35
2019-02-15T18:22:34.814Z,14.26
2019-02-15T18:25:05.519Z,14.24
2019-02-15T18:27:35.998Z,14.21
2019-02-15T18:30:08.543Z,14.17
2019-02-15T18:32:39.142Z,14.06
2019-02-15T18:35:09.643Z,14.03
2019-02-15T18:37:40.139Z,13.99
2019-02-15T18:40:10.997Z,14.01
2019-02-15T18:42:41.485Z,13.91
2019-02-15T18:45:13.121Z,13.90
2019-02-15T18:47:43.683Z,13.88
2019-02-15T18:50:14.211Z,13.77
2019-02-15T18:52:44.724Z,13.72
2019-02-15T18:55:15.238Z,13.76
2019-02-15T18:57:45.748Z,13.76
2019-02-15T19:00:16.798Z,13.71
2019-02-15T19:02:47.533Z,13.58
2019-02-15T19:05:18.062Z,13.67
2019-02-15T19:07:48.856Z,13.62
2019-02-15T19:10:19.767Z,13.58
2019-02-15T19:12:51.977Z,13.53
2019-02-15T19:15:22.492Z,13.50
2019-02-15T19:17:53.370Z,13.43
2019-02-15T19:20:23.936Z,13.42
2019-02-15T19:22:54.468Z,13.39
2019-02-15T19:25:25.231Z,13.35
2019-02-15T19:27:56.127Z,13.34
2019-02-15T19:30:28.132Z,13.25
2019-02-15T19:32:58.951Z,13.19
2019-02-15T19:35:29.454Z,13.18
2019-02-15T19:38:00.508Z,13.12
2019-02-15T19:40:31.112Z,13.07
2019-02-15T19:43:02.070Z,12.97
2019-02-15T19:45:32.588Z,12.92
2019-02-15T19:48:03.425Z,12.89
2019-02-15T19:50:34.186Z,12.90
2019-02-15T19:53:04.946Z,12.93
2019-02-15T19:55:35.761Z,12.86
2019-02-15T19:58:06.314Z,12.84
2019-02-15T20:00:37.128Z,12.87
2019-02-15T20:03:07.964Z,12.79
2019-02-15T20:05:38.759Z,12.79
2019-02-15T20:08:27.030Z,12.68
2019-02-15T20:10:57.569Z,12.67
2019-02-15T20:13:28.092Z,12.68
2019-02-15T20:15:58.651Z,12.61
2019-02-15T20:18:29.348Z,12.56
2019-02-15T20:21:00.086Z,12.55
2019-02-15T20:23:31.078Z,12.49
2019-02-15T20:26:02.020Z,12.49
2019-02-15T20:28:33.106Z,12.55
2019-02-15T20:31:03.915Z,12.49
2019-02-15T20:33:34.585Z,12.44
2019-02-15T20:36:05.476Z,12.38
2019-02-15T20:38:36.105Z,12.31
2019-02-15T20:41:06.751Z,12.35
2019-02-15T20:43:37.777Z,12.28
2019-02-15T20:46:08.434Z,12.16
2019-02-15T20:48:39.089Z,12.08
2019-02-15T20:51:09.686Z,12.03
2019-02-15T20:53:40.312Z,12.06
2019-02-15T20:56:11.710Z,11.99
2019-02-15T20:58:42.562Z,11.91
2019-02-15T21:01:13.683Z,11.90
2019-02-15T21:03:51.617Z,11.84
2019-02-15T21:06:22.401Z,11.90
2019-02-15T21:08:54.716Z,11.83
2019-02-15T21:11:25.354Z,11.85
2019-02-15T21:13:56.199Z,11.78
2019-02-15T21:16:30.096Z,11.79
2019-02-15T21:19:00.742Z,11.71
2019-02-15T21:21:31.436Z,11.76
2019-02-15T21:24:02.178Z,11.64
2019-02-15T21:26:32.698Z,11.59
2019-02-15T21:29:03.638Z,11.64
2019-02-15T21:31:34.961Z,11.59
2019-02-15T21:34:06.006Z,11.50
2019-02-15T21:36:36.610Z,11.47
2019-02-15T21:39:09.692Z,11.42
2019-02-15T21:41:40.736Z,11.42
2019-02-15T21:44:11.696Z,11.33
2019-02-15T21:46:42.539Z,11.29
2019-02-15T21:49:13.349Z,11.28
2019-02-15T21:51:44.249Z,11.28
2019-02-15T21:54:14.870Z,11.28
2019-02-15T21:56:45.772Z,11.22
2019-02-15T21:59:16.728Z,11.16
2019-02-15T22:01:48.573Z,11.11
2019-02-15T22:04:19.245Z,11.11
2019-02-15T22:06:49.847Z,11.14
2019-02-15T22:09:20.696Z,11.05
2019-02-15T22:11:51.398Z,11.05
2019-02-15T22:14:22.124Z,11.10
2019-02-15T22:16:52.839Z,11.01
2019-02-15T22:19:23.522Z,10.94
2019-02-15T22:21:54.475Z,10.94
2019-02-15T22:24:25.490Z,10.94
2019-02-15T22:26:56.248Z,10.91
2019-02-15T22:29:26.856Z,10.95
2019-02-15T22:31:57.806Z,10.90
2019-02-15T22:34:28.432Z,10.85
2019-02-15T22:36:59.251Z,10.77
2019-02-15T22:39:30.258Z,10.75
2019-02-15T22:42:01.307Z,10.71
2019-02-15T22:44:32.142Z,10.72
2019-02-15T22:47:03.095Z,10.72
2019-02-15T22:49:43.114Z,10.76
2019-02-15T22:52:06.113Z,10.71
2019-02-15T22:54:36.915Z,10.63
2019-02-15T22:57:07.808Z,10.70
2019-02-15T22:59:38.685Z,10.62
2019-02-15T23:02:11.372Z,10.58
2019-02-15T23:04:42.542Z,10.56
2019-02-15T23:07:13.126Z,10.60
2019-02-15T23:09:43.835Z,10.54
2019-02-15T23:12:14.523Z,10.51
2019-02-15T23:14:45.162Z,10.55
2019-02-15T23:17:16.103Z,10.52
2019-02-15T23:19:46.839Z,10.46
2019-02-15T23:22:17.789Z,10.45
2019-02-15T23:24:48.772Z,10.42
2019-02-15T23:27:19.316Z,10.45
2019-02-15T23:29:50.262Z,10.43
2019-02-15T23:32:21.172Z,10.39
2019-02-15T23:34:52.968Z,10.42
2019-02-15T23:37:23.827Z,10.33
2019-02-15T23:39:54.430Z,10.23
2019-02-15T23:42:25.143Z,10.23
2019-02-15T23:44:56.116Z,10.26
2019-02-15T23:47:27.007Z,10.22
2019-02-15T23:49:57.588Z,10.18
2019-02-15T23:52:28.172Z,10.18
2019-02-15T23:54:58.872Z,10.16
2019-02-15T23:57:29.850Z,10.12
